Time;durP1;ratioP1;P1;durP2;ratioP2;P2;SDS_P1;SDS_P2;PMS_P1;PMS_P2;Temp;Humidity;BMP_temperature;BMP_pressure;BME280_temperature;BME280_humidity;BME280_pressure;Samples;Min_cycle;Max_cycle;Signal;HPM_P1;HPM_P2
2023/04/24 00:00:23;;;;;;;6.68;2.90;;;;;;;10.02;79.93;100189.59;5066250;28;20048;-64
2023/04/24 00:02:50;;;;;;;14.40;3.95;;;;;;;10.04;79.50;100195.56;5042304;28;20037;-64
2023/04/24 00:05:19;;;;;;;8.65;2.97;;;;;;;9.89;80.65;100193.28;5067047;28;20044;-64
2023/04/24 00:07:46;;;;;;;9.63;3.40;;;;;;;10.08;80.72;100194.63;5068967;28;20049;-64
2023/04/24 00:10:14;;;;;;;9.05;3.20;;;;;;;9.94;80.43;100202.19;5063071;28;20060;-64
2023/04/24 00:12:41;;;;;;;16.40;3.58;;;;;;;9.96;80.55;100205.44;5068927;28;20503;-64
2023/04/24 00:15:09;;;;;;;9.98;3.15;;;;;;;9.83;80.28;100208.31;5069210;28;20057;-65
2023/04/24 00:17:37;;;;;;;7.57;2.97;;;;;;;9.72;81.22;100209.75;5069283;28;20052;-65
2023/04/24 00:20:06;;;;;;;10.27;2.90;;;;;;;9.73;81.22;100209.44;5070232;28;20040;-65
2023/04/24 00:22:34;;;;;;;13.07;3.30;;;;;;;9.88;81.05;100211.75;5065063;28;20055;-65
2023/04/24 00:25:01;;;;;;;12.23;3.35;;;;;;;9.71;81.95;100216.41;5063096;28;20052;-65
2023/04/24 00:27:28;;;;;;;12.98;3.90;;;;;;;9.79;81.50;100216.41;5067172;28;20423;-65
2023/04/24 00:29:55;;;;;;;8.85;2.90;;;;;;;9.96;81.13;100218.38;5063272;28;20060;-64
2023/04/24 00:32:23;;;;;;;9.52;3.65;;;;;;;9.70;80.81;100225.75;5067301;28;20044;-65
2023/04/24 00:34:50;;;;;;;10.32;2.80;;;;;;;9.58;81.71;100228.31;5052640;28;20812;-64
2023/04/24 00:37:18;;;;;;;15.88;3.50;;;;;;;9.50;82.70;100229.09;5063708;28;20507;-65
2023/04/24 00:39:45;;;;;;;10.63;2.80;;;;;;;9.74;82.65;100215.75;5083767;28;20045;-65
2023/04/24 00:42:12;;;;;;;10.25;2.60;;;;;;;9.78;80.92;100238.75;5049949;28;20064;-65
2023/04/24 00:44:39;;;;;;;16.38;3.97;;;;;;;9.61;81.54;100230.41;5070611;28;20056;-65
2023/04/24 00:47:07;;;;;;;13.93;3.70;;;;;;;9.63;82.05;100237.22;5058312;28;20045;-64
2023/04/24 00:49:35;;;;;;;11.18;2.72;;;;;;;9.94;82.43;100246.22;5036665;28;20403;-64
2023/04/24 00:52:07;;;;;;;7.60;2.67;;;;;;;9.81;83.68;100240.84;5068521;28;20053;-66
2023/04/24 00:54:35;;;;;;;12.55;2.75;;;;;;;9.77;81.33;100248.09;5064806;28;20044;-64
2023/04/24 00:57:03;;;;;;;8.02;2.85;;;;;;;9.55;81.42;100250.94;5071268;28;20066;-65
2023/04/24 00:59:30;;;;;;;12.55;3.75;;;;;;;9.39;82.36;100258.00;5069247;28;20052;-65
2023/04/24 01:01:58;;;;;;;14.73;2.72;;;;;;;9.24;83.85;100256.44;5065664;28;20048;-65
2023/04/24 01:04:26;;;;;;;12.18;3.28;;;;;;;9.37;84.66;100257.50;5061863;28;20061;-64
2023/04/24 01:06:55;;;;;;;16.70;3.17;;;;;;;9.37;83.61;100254.75;5059747;28;20484;-64
2023/04/24 01:09:23;;;;;;;14.50;3.72;;;;;;;9.64;83.57;100254.53;5066155;28;20053;-64
2023/04/24 01:11:51;;;;;;;11.35;2.85;;;;;;;9.59;82.80;100247.22;5065275;28;20260;-65
2023/04/24 01:14:18;;;;;;;10.93;3.20;;;;;;;9.74;82.48;100251.50;5065458;28;20059;-65
2023/04/24 01:16:46;;;;;;;13.85;3.10;;;;;;;9.72;83.45;100253.75;5067407;28;20052;-65
2023/04/24 01:19:15;;;;;;;11.38;2.88;;;;;;;9.67;81.86;100245.66;5068638;28;20059;-64
2023/04/24 01:21:43;;;;;;;11.32;3.13;;;;;;;9.43;82.49;100243.28;5053987;28;20427;-64
2023/04/24 01:24:10;;;;;;;14.13;3.20;;;;;;;9.57;82.92;100249.47;5054831;28;20060;-64
2023/04/24 01:26:38;;;;;;;12.48;3.03;;;;;;;9.52;82.36;100238.63;5065991;28;20045;-65
2023/04/24 01:29:05;;;;;;;11.50;3.15;;;;;;;9.54;82.10;100244.63;5054659;28;20049;-65
2023/04/24 01:31:34;;;;;;;11.55;3.05;;;;;;;9.44;82.26;100250.41;5068232;28;20045;-65
2023/04/24 01:34:02;;;;;;;11.20;2.92;;;;;;;9.45;83.08;100257.53;5065174;28;20060;-65
2023/04/24 01:36:31;;;;;;;11.75;3.17;;;;;;;9.64;83.34;100260.03;5049196;28;20061;-65
2023/04/24 01:38:58;;;;;;;7.72;2.80;;;;;;;9.56;82.01;100253.38;5055190;28;20058;-64
2023/04/24 01:41:26;;;;;;;21.65;3.22;;;;;;;9.39;81.99;100263.50;5063433;28;20056;-64
2023/04/24 01:43:53;;;;;;;13.23;3.20;;;;;;;9.43;82.57;100254.28;5071392;28;20048;-64
2023/04/24 01:46:22;;;;;;;15.95;3.00;;;;;;;9.65;82.45;100269.91;5064892;28;20048;-63
2023/04/24 01:48:51;;;;;;;11.27;3.00;;;;;;;9.52;81.98;100268.88;5068634;28;20048;-65
2023/04/24 01:51:19;;;;;;;9.23;2.58;;;;;;;9.73;83.02;100269.09;5046288;28;20079;-64
2023/04/24 01:53:46;;;;;;;14.73;3.17;;;;;;;9.68;81.77;100267.31;5062925;28;20052;-65
2023/04/24 01:56:14;;;;;;;12.40;3.03;;;;;;;9.76;81.70;100276.75;5067571;28;20052;-65
2023/04/24 01:58:41;;;;;;;9.93;2.72;;;;;;;9.67;81.04;100278.66;5055802;28;20072;-65
2023/04/24 02:01:09;;;;;;;15.07;2.97;;;;;;;9.74;81.30;100273.50;5034516;28;20447;-65
2023/04/24 02:03:36;;;;;;;11.25;2.85;;;;;;;9.51;81.55;100285.69;5069366;28;20056;-64
2023/04/24 02:06:04;;;;;;;11.15;2.63;;;;;;;9.56;81.91;100275.38;5069703;28;20059;-65
2023/04/24 02:08:31;;;;;;;9.65;3.25;;;;;;;9.78;81.79;100274.50;5051131;28;20048;-65
2023/04/24 02:10:58;;;;;;;13.40;3.33;;;;;;;9.68;82.30;100280.25;5070566;28;20091;-64
2023/04/24 02:13:25;;;;;;;13.90;2.85;;;;;;;9.75;82.06;100278.69;5069940;28;20490;-64
2023/04/24 02:15:53;;;;;;;9.30;2.70;;;;;;;9.61;82.67;100285.41;5066110;28;20052;-64
2023/04/24 02:18:20;;;;;;;12.63;2.97;;;;;;;9.74;81.99;100293.56;5070124;28;22427;-65
2023/04/24 02:20:47;;;;;;;9.40;2.58;;;;;;;10.08;81.81;100290.09;5070287;28;20061;-65
2023/04/24 02:23:15;;;;;;;15.88;3.13;;;;;;;9.80;80.61;100288.72;5064798;28;20048;-65
2023/04/24 02:25:42;;;;;;;10.18;2.92;;;;;;;9.87;82.50;100292.63;5071582;28;20052;-64
2023/04/24 02:28:09;;;;;;;11.63;3.03;;;;;;;9.85;80.87;100294.88;5067050;28;20071;-65
2023/04/24 02:30:36;;;;;;;9.65;2.85;;;;;;;9.99;81.25;100294.75;5069256;28;20093;-65
2023/04/24 02:33:04;;;;;;;12.95;2.70;;;;;;;9.86;81.60;100295.69;5062532;28;20044;-65
2023/04/24 02:35:31;;;;;;;12.65;3.67;;;;;;;9.96;81.01;100307.22;5073352;28;20044;-65
2023/04/24 02:37:59;;;;;;;9.00;2.47;;;;;;;9.86;81.46;100298.44;5067809;28;20045;-65
2023/04/24 02:40:26;;;;;;;13.57;3.00;;;;;;;9.68;81.43;100296.75;5068846;28;20059;-64
2023/04/24 02:42:53;;;;;;;8.68;2.58;;;;;;;9.61;82.02;100299.97;5069907;28;20067;-64
2023/04/24 02:45:21;;;;;;;7.95;2.30;;;;;;;9.70;81.95;100291.75;5074999;28;20056;-64
2023/04/24 02:47:48;;;;;;;10.68;2.72;;;;;;;9.61;81.67;100288.16;5070283;28;20562;-65
2023/04/24 02:50:15;;;;;;;12.15;2.78;;;;;;;9.48;82.28;100297.34;5071110;28;20062;-63
2023/04/24 02:52:43;;;;;;;15.75;3.03;;;;;;;9.50;83.26;100301.38;5049399;28;20060;-65
2023/04/24 02:55:10;;;;;;;9.25;2.65;;;;;;;9.64;82.94;100315.03;5068085;28;20044;-65
2023/04/24 02:57:37;;;;;;;8.25;2.42;;;;;;;9.53;83.03;100317.25;5065554;28;20055;-65
2023/04/24 03:00:07;;;;;;;11.05;2.90;;;;;;;9.45;82.49;100319.97;5070148;28;20044;-64
2023/04/24 03:02:34;;;;;;;13.17;3.00;;;;;;;9.53;83.68;100324.69;5068539;28;20056;-64
2023/04/24 03:05:02;;;;;;;12.02;2.60;;;;;;;9.64;82.40;100321.31;5071759;28;20048;-64
2023/04/24 03:07:29;;;;;;;8.95;3.28;;;;;;;9.45;83.31;100323.50;5068420;28;20060;-65
2023/04/24 03:09:59;;;;;;;10.20;2.90;;;;;;;9.51;83.60;100327.75;5054651;28;20065;-65
2023/04/24 03:12:26;;;;;;;10.02;2.75;;;;;;;9.26;83.36;100328.41;5071525;28;20040;-65
2023/04/24 03:14:53;;;;;;;12.40;2.65;;;;;;;9.36;84.82;100325.41;5075806;28;20083;-64
2023/04/24 03:17:20;;;;;;;12.27;2.95;;;;;;;9.53;83.76;100328.25;5054534;28;20503;-65
2023/04/24 03:19:48;;;;;;;9.55;2.70;;;;;;;9.69;83.93;100325.91;5073678;28;20055;-65
2023/04/24 03:22:15;;;;;;;12.88;2.75;;;;;;;9.71;82.57;100318.94;5054844;28;20049;-64
2023/04/24 03:24:43;;;;;;;11.20;2.67;;;;;;;9.76;84.03;100321.53;5052619;28;20495;-64
2023/04/24 03:27:10;;;;;;;13.30;2.85;;;;;;;9.70;82.98;100327.50;5065847;28;20053;-64
2023/04/24 03:29:55;;;;;;;10.98;3.15;;;;;;;9.70;81.75;100333.00;5052126;28;20067;-65
2023/04/24 03:32:29;;;;;;;13.10;3.22;;;;;;;9.77;83.14;100331.44;5068593;28;20048;-65
2023/04/24 03:34:56;;;;;;;17.15;3.15;;;;;;;9.90;82.99;100327.75;5063693;28;20052;-64
2023/04/24 03:37:23;;;;;;;11.10;2.80;;;;;;;9.77;81.54;100323.19;5065168;28;20048;-65
2023/04/24 03:40:02;;;;;;;14.95;2.92;;;;;;;9.65;82.83;100322.97;5064918;28;20048;-64
2023/04/24 03:42:29;;;;;;;6.03;2.05;;;;;;;9.64;82.56;100331.53;5066673;28;20056;-64
2023/04/24 03:44:57;;;;;;;8.98;2.70;;;;;;;9.59;82.12;100329.72;5063918;28;20542;-64
2023/04/24 03:47:29;;;;;;;11.50;2.65;;;;;;;9.65;82.26;100330.41;5078216;28;20645;-65
2023/04/24 03:50:00;;;;;;;9.32;2.55;;;;;;;9.73;82.88;100333.19;5065562;28;20056;-65
2023/04/24 03:52:28;;;;;;;11.23;3.17;;;;;;;9.73;82.19;100346.13;5050699;28;20057;-65
2023/04/24 03:54:55;;;;;;;12.32;2.80;;;;;;;9.92;81.62;100336.50;5067744;28;20732;-65
2023/04/24 03:57:24;;;;;;;12.88;2.50;;;;;;;9.78;81.54;100338.53;5067627;28;20499;-64
2023/04/24 04:00:21;;;;;;;10.38;2.70;;;;;;;9.52;82.74;100353.31;5054985;28;20063;-65
2023/04/24 04:03:00;;;;;;;10.23;2.70;;;;;;;9.71;82.38;100364.91;5071010;28;20230;-66
2023/04/24 04:05:29;;;;;;;13.13;2.95;;;;;;;9.44;82.71;100365.06;5069095;28;20590;-64
2023/04/24 04:07:56;;;;;;;12.70;2.92;;;;;;;9.36;83.67;100372.16;5069354;28;20076;-65
2023/04/24 04:10:24;;;;;;;9.10;2.90;;;;;;;9.35;84.32;100359.50;5054501;28;20372;-64
2023/04/24 04:12:51;;;;;;;9.57;2.65;;;;;;;9.59;83.91;100375.69;5073486;28;20040;-65
2023/04/24 04:15:18;;;;;;;13.25;3.25;;;;;;;9.57;83.02;100375.16;5072359;28;20582;-65
2023/04/24 04:17:46;;;;;;;9.27;3.35;;;;;;;9.66;83.63;100381.53;5047055;28;20045;-65
2023/04/24 04:20:14;;;;;;;12.52;3.22;;;;;;;9.51;82.86;100373.66;5069770;28;20056;-66
2023/04/24 04:22:41;;;;;;;13.30;3.40;;;;;;;9.44;83.39;100365.88;5067883;28;20052;-66
2023/04/24 04:25:14;;;;;;;10.80;2.95;;;;;;;9.47;83.99;100372.66;5063940;28;20420;-65
2023/04/24 04:27:42;;;;;;;10.82;4.10;;;;;;;9.63;84.34;100379.41;5052696;28;20053;-66
2023/04/24 04:30:12;;;;;;;15.55;4.03;;;;;;;9.56;84.37;100390.84;5071430;28;20063;-66
2023/04/24 04:32:50;;;;;;;12.15;3.55;;;;;;;9.34;83.85;100392.81;5071070;28;20060;-65
2023/04/24 04:35:17;;;;;;;11.13;3.60;;;;;;;9.38;84.43;100397.34;5050399;28;20052;-65
2023/04/24 04:37:45;;;;;;;11.70;3.33;;;;;;;9.35;84.63;100405.41;5052339;28;20056;-65
2023/04/24 04:40:26;;;;;;;12.45;3.50;;;;;;;9.52;83.71;100402.81;5079024;28;20060;-66
2023/04/24 04:43:00;;;;;;;8.48;3.42;;;;;;;9.44;84.09;100395.28;5071780;28;20063;-65
2023/04/24 04:45:34;;;;;;;13.27;3.55;;;;;;;9.53;84.44;100409.91;5066453;28;20060;-66
2023/04/24 04:48:20;;;;;;;10.85;3.42;;;;;;;9.68;83.67;100417.75;5064440;28;20049;-65
2023/04/24 04:50:47;;;;;;;10.60;3.63;;;;;;;9.77;83.34;100413.13;5083689;28;20048;-67
2023/04/24 04:53:15;;;;;;;11.07;3.60;;;;;;;9.54;82.93;100401.34;5050342;28;20048;-66
2023/04/24 04:55:42;;;;;;;11.68;3.40;;;;;;;9.71;83.42;100423.44;5051830;28;20496;-65
2023/04/24 04:58:13;;;;;;;14.07;3.33;;;;;;;9.82;82.03;100415.75;5054080;28;20622;-66
2023/04/24 05:00:41;;;;;;;11.18;3.85;;;;;;;9.63;83.11;100418.72;5066273;28;20048;-66
2023/04/24 05:03:17;;;;;;;11.75;4.00;;;;;;;9.66;83.12;100423.56;5062478;28;20052;-66
2023/04/24 05:05:53;;;;;;;10.82;3.50;;;;;;;9.66;83.47;100429.06;5067058;28;20052;-65
2023/04/24 05:08:21;;;;;;;10.20;3.70;;;;;;;9.88;84.07;100431.81;5034257;28;20067;-65
2023/04/24 05:10:51;;;;;;;13.23;3.88;;;;;;;9.79;84.01;100432.88;5065568;28;20507;-66
2023/04/24 05:13:18;;;;;;;11.80;3.78;;;;;;;9.63;82.97;100446.22;5048018;28;20049;-65
2023/04/24 05:16:05;;;;;;;11.95;4.20;;;;;;;9.71;84.26;100450.16;5072072;28;20055;-65
2023/04/24 05:18:34;;;;;;;14.25;4.05;;;;;;;9.77;84.55;100451.63;5050357;28;20049;-65
2023/04/24 05:21:01;;;;;;;14.15;4.07;;;;;;;9.92;83.88;100462.25;5056933;28;20064;-65
2023/04/24 05:23:29;;;;;;;18.15;4.20;;;;;;;9.71;83.67;100461.16;5068202;28;20048;-65
2023/04/24 05:25:57;;;;;;;14.15;4.28;;;;;;;9.65;84.81;100484.41;5063164;28;20048;-65
2023/04/24 05:28:28;;;;;;;15.60;4.57;;;;;;;9.28;85.47;100479.25;5050163;28;20158;-65
2023/04/24 05:31:04;;;;;;;18.13;4.68;;;;;;;9.21;86.79;100479.69;5067642;28;20057;-64
2023/04/24 05:33:32;;;;;;;14.25;5.10;;;;;;;9.19;87.41;100483.88;5077649;28;20036;-67
2023/04/24 05:35:59;;;;;;;16.90;5.25;;;;;;;9.59;88.13;100491.16;5074144;28;20927;-66
2023/04/24 05:38:27;;;;;;;14.32;4.60;;;;;;;9.44;85.58;100500.56;5068260;28;20056;-65
2023/04/24 05:40:54;;;;;;;16.15;4.65;;;;;;;9.32;86.60;100492.06;5044882;28;20056;-67
2023/04/24 05:43:21;;;;;;;13.85;4.72;;;;;;;9.62;87.44;100504.28;5072548;28;20431;-66
2023/04/24 05:45:49;;;;;;;14.77;5.13;;;;;;;9.51;86.27;100506.44;5073466;28;20063;-66
2023/04/24 05:48:18;;;;;;;10.05;4.57;;;;;;;9.37;86.70;100513.94;5074869;28;20049;-65
2023/04/24 05:50:47;;;;;;;13.07;4.78;;;;;;;9.52;86.49;100521.03;5069044;28;20052;-65
2023/04/24 05:53:14;;;;;;;14.02;5.10;;;;;;;9.47;86.15;100521.13;5072788;28;20052;-66
2023/04/24 05:55:41;;;;;;;13.43;5.07;;;;;;;9.74;87.19;100521.84;5079073;28;20052;-65
2023/04/24 05:58:09;;;;;;;12.93;5.25;;;;;;;9.99;85.55;100531.38;5062660;28;20404;-65
2023/04/24 06:00:38;;;;;;;17.67;5.70;;;;;;;9.76;85.09;100524.28;5059118;28;20052;-65
2023/04/24 06:03:08;;;;;;;11.95;5.38;;;;;;;9.75;85.77;100525.38;5071710;28;20061;-66
2023/04/24 06:05:36;;;;;;;12.60;5.53;;;;;;;9.98;85.62;100536.09;5075974;28;20416;-66
2023/04/24 06:08:04;;;;;;;14.90;5.75;;;;;;;9.85;84.86;100542.47;5074739;28;20052;-66
2023/04/24 06:10:35;;;;;;;16.38;6.35;;;;;;;9.77;85.32;100550.66;5070450;28;20518;-66
2023/04/24 06:13:04;;;;;;;19.67;5.50;;;;;;;10.04;86.37;100547.78;5059747;28;20052;-66
2023/04/24 06:15:33;;;;;;;11.43;5.90;;;;;;;9.98;85.60;100549.84;5071058;28;20089;-65
2023/04/24 06:18:07;;;;;;;18.63;5.57;;;;;;;10.07;84.92;100558.16;5055817;28;20048;-65
2023/04/24 06:20:36;;;;;;;12.77;5.60;;;;;;;9.88;84.59;100557.53;5069823;28;20075;-66
2023/04/24 06:23:03;;;;;;;12.15;5.88;;;;;;;10.04;84.19;100556.81;5073102;28;20064;-67
2023/04/24 06:25:33;;;;;;;17.85;6.35;;;;;;;9.87;84.76;100558.66;5089404;28;20048;-67
2023/04/24 06:28:01;;;;;;;15.20;6.55;;;;;;;9.81;85.69;100565.41;5053675;28;20056;-68
2023/04/24 06:30:30;;;;;;;14.80;6.20;;;;;;;9.79;85.46;100570.41;5073545;28;20064;-68
2023/04/24 06:32:57;;;;;;;13.57;6.47;;;;;;;10.04;85.62;100573.34;5072807;28;20067;-67
2023/04/24 06:35:37;;;;;;;15.98;6.97;;;;;;;9.96;84.64;100578.78;5060274;28;20052;-68
2023/04/24 06:38:05;;;;;;;17.35;7.32;;;;;;;9.96;85.26;100578.78;5059215;28;20059;-66
2023/04/24 06:40:33;;;;;;;12.38;6.93;;;;;;;10.05;85.49;100577.72;5062880;28;20626;-67
2023/04/24 06:43:02;;;;;;;20.48;7.47;;;;;;;10.30;85.11;100584.56;5061440;28;20087;-65
2023/04/24 06:45:29;;;;;;;13.68;6.97;;;;;;;10.40;83.55;100573.28;5065698;28;20882;-66
2023/04/24 06:47:57;;;;;;;14.98;7.30;;;;;;;10.54;84.79;100587.78;5068841;28;20072;-66
2023/04/24 06:50:24;;;;;;;24.55;6.95;;;;;;;11.51;86.53;100573.66;5074327;28;20360;-67
2023/04/24 06:52:52;;;;;;;14.57;6.32;;;;;;;12.11;76.63;100579.19;5065506;28;20055;-66
2023/04/24 06:55:19;;;;;;;16.15;6.55;;;;;;;12.00;74.15;100583.41;5078697;28;20056;-65
2023/04/24 06:57:47;;;;;;;13.15;7.13;;;;;;;11.46;76.34;100576.56;5072235;28;20415;-65
2023/04/24 07:00:15;;;;;;;15.00;7.18;;;;;;;11.16;78.24;100581.03;5062315;28;20040;-70
2023/04/24 07:02:43;;;;;;;13.77;6.63;;;;;;;11.28;78.29;100578.47;5066918;28;20041;-68
2023/04/24 07:05:12;;;;;;;13.35;7.38;;;;;;;11.00;79.70;100579.06;5070348;28;20523;-67
2023/04/24 07:07:40;;;;;;;16.95;7.68;;;;;;;10.68;80.25;100579.41;5067144;28;20055;-66
2023/04/24 07:10:08;;;;;;;14.90;7.80;;;;;;;10.59;82.90;100589.56;5062539;28;20055;-65
2023/04/24 07:12:35;;;;;;;14.85;7.70;;;;;;;10.86;82.08;100594.91;5078589;28;20502;-67
2023/04/24 07:15:05;;;;;;;13.73;8.23;;;;;;;11.09;79.28;100594.47;5070806;28;20052;-66
2023/04/24 07:17:32;;;;;;;16.40;8.50;;;;;;;11.37;80.05;100595.03;5067827;28;20064;-64
2023/04/24 07:19:59;;;;;;;15.65;8.45;;;;;;;11.25;79.04;100586.56;5062297;28;20080;-66
2023/04/24 07:22:27;;;;;;;19.08;9.15;;;;;;;11.02;79.11;100591.38;5068896;28;20057;-66
2023/04/24 07:24:54;;;;;;;13.23;8.15;;;;;;;11.09;79.47;100588.16;5059408;28;20052;-65
2023/04/24 07:27:21;;;;;;;19.25;9.45;;;;;;;11.23;78.98;100595.16;5063694;28;20060;-65
2023/04/24 07:29:50;;;;;;;17.27;9.52;;;;;;;11.33;78.82;100588.56;5061213;28;20071;-67
2023/04/24 07:32:17;;;;;;;18.27;8.98;;;;;;;11.50;77.68;100588.59;5069022;28;20045;-66
2023/04/24 07:34:45;;;;;;;21.00;8.52;;;;;;;11.37;77.77;100594.25;5062268;28;20048;-66
2023/04/24 07:37:13;;;;;;;22.10;9.18;;;;;;;11.24;79.06;100602.28;5078218;28;20060;-66
2023/04/24 07:39:40;;;;;;;18.17;9.23;;;;;;;11.46;79.02;100608.84;5061943;28;20049;-66
2023/04/24 07:42:08;;;;;;;16.40;8.50;;;;;;;11.68;78.17;100594.97;5059687;28;20045;-66
2023/04/24 07:44:36;;;;;;;16.33;8.80;;;;;;;11.43;76.66;100601.22;5063126;28;20053;-66
2023/04/24 07:47:03;;;;;;;16.20;9.00;;;;;;;11.38;77.49;100605.75;5075846;28;20044;-66
2023/04/24 07:49:30;;;;;;;15.77;8.95;;;;;;;11.36;78.68;100615.47;5065500;28;20500;-67
2023/04/24 07:52:00;;;;;;;18.10;8.85;;;;;;;11.58;78.28;100609.00;5067451;28;20059;-66
2023/04/24 07:54:28;;;;;;;23.00;9.87;;;;;;;11.67;76.33;100607.13;5057147;28;20048;-65
2023/04/24 07:56:55;;;;;;;17.42;8.93;;;;;;;11.59;76.83;100607.91;5044399;28;20063;-64
2023/04/24 07:59:23;;;;;;;14.98;9.05;;;;;;;11.64;76.61;100613.25;5064633;28;20036;-65
2023/04/24 08:01:50;;;;;;;19.98;10.10;;;;;;;11.57;77.59;100622.03;5063949;28;20060;-65
2023/04/24 08:04:18;;;;;;;23.75;9.85;;;;;;;11.52;77.54;100622.19;5067009;28;20052;-65
2023/04/24 08:06:47;;;;;;;18.63;10.38;;;;;;;11.39;77.60;100623.09;5059774;28;20071;-64
2023/04/24 08:09:14;;;;;;;20.05;9.20;;;;;;;11.42;78.80;100629.94;5067782;28;20059;-66
2023/04/24 08:11:42;;;;;;;18.38;9.90;;;;;;;11.53;78.19;100629.31;5063840;28;20045;-67
2023/04/24 08:14:09;;;;;;;17.27;9.77;;;;;;;11.80;77.45;100629.03;5058448;28;20056;-64
2023/04/24 08:16:36;;;;;;;17.67;9.85;;;;;;;11.83;75.85;100631.16;5057344;28;20044;-66
2023/04/24 08:19:04;;;;;;;18.60;10.05;;;;;;;11.97;75.90;100639.28;5059962;28;22434;-64
2023/04/24 08:21:34;;;;;;;19.83;9.93;;;;;;;12.10;74.93;100630.84;5060315;28;20052;-66
2023/04/24 08:24:05;;;;;;;16.05;9.68;;;;;;;11.92;75.51;100643.03;5062492;28;20063;-65
2023/04/24 08:26:32;;;;;;;18.10;9.73;;;;;;;11.97;74.79;100631.81;5058065;28;20053;-66
2023/04/24 08:28:59;;;;;;;20.55;10.25;;;;;;;12.29;74.31;100636.03;5068369;28;20161;-65
2023/04/24 08:31:26;;;;;;;21.17;10.43;;;;;;;12.41;73.22;100636.97;5056284;28;20044;-65
2023/04/24 08:33:54;;;;;;;18.20;10.45;;;;;;;12.35;73.34;100634.72;5060642;28;20044;-64
2023/04/24 08:36:21;;;;;;;15.60;10.20;;;;;;;12.54;73.44;100637.09;5067480;28;20055;-66
2023/04/24 08:38:52;;;;;;;23.00;10.65;;;;;;;12.74;71.93;100628.94;5062880;28;20064;-64
2023/04/24 08:41:21;;;;;;;14.93;9.55;;;;;;;12.87;71.24;100644.50;5067986;28;20103;-65
2023/04/24 08:43:48;;;;;;;16.08;9.75;;;;;;;12.65;70.05;100641.16;5057741;28;20060;-65
2023/04/24 08:46:18;;;;;;;17.05;9.90;;;;;;;12.10;73.04;100649.38;5074173;28;20049;-65
2023/04/24 08:48:46;;;;;;;19.95;10.30;;;;;;;12.22;73.79;100650.31;5061287;28;20053;-65
2023/04/24 08:51:14;;;;;;;18.67;10.60;;;;;;;12.61;72.70;100642.94;5068052;28;20041;-64
2023/04/24 08:53:41;;;;;;;17.58;10.95;;;;;;;12.85;70.72;100646.78;5064532;28;20064;-65
2023/04/24 08:56:09;;;;;;;24.70;11.55;;;;;;;12.71;70.39;100639.84;5060571;28;20055;-66
2023/04/24 08:58:36;;;;;;;19.10;10.80;;;;;;;12.92;70.85;100646.28;5067374;28;20511;-64
2023/04/24 09:01:04;;;;;;;26.83;10.98;;;;;;;12.99;69.88;100635.53;5057387;28;20048;-64
2023/04/24 09:03:33;;;;;;;17.35;9.93;;;;;;;13.15;68.56;100642.16;5065465;28;20684;-64
2023/04/24 09:06:01;;;;;;;18.15;9.68;;;;;;;13.28;68.72;100630.06;5052502;28;20813;-65
2023/04/24 09:08:29;;;;;;;14.00;9.05;;;;;;;13.64;67.13;100648.88;5070733;28;20479;-66
2023/04/24 09:10:58;;;;;;;15.85;9.45;;;;;;;13.08;66.76;100653.72;5052625;28;20044;-65
2023/04/24 09:13:26;;;;;;;14.93;9.60;;;;;;;12.60;70.04;100653.22;5062093;28;20060;-65
2023/04/24 09:15:54;;;;;;;18.83;10.07;;;;;;;12.80;70.38;100655.25;5057317;28;20055;-66
2023/04/24 09:18:21;;;;;;;15.80;9.77;;;;;;;13.02;69.73;100657.00;5062115;28;20048;-66
2023/04/24 09:21:08;;;;;;;16.38;9.95;;;;;;;12.97;69.19;100654.41;5066818;28;20044;-65
2023/04/24 09:23:35;;;;;;;18.30;8.98;;;;;;;13.08;68.62;100661.22;5069391;28;20053;-66
2023/04/24 09:26:06;;;;;;;15.55;8.95;;;;;;;12.91;69.19;100662.06;5069030;28;20063;-65
2023/04/24 09:28:39;;;;;;;16.73;9.38;;;;;;;12.83;69.55;100657.34;5067996;28;20044;-64
2023/04/24 09:31:15;;;;;;;18.88;9.60;;;;;;;12.66;69.80;100668.47;5062317;28;20040;-65
2023/04/24 09:33:55;;;;;;;15.15;10.25;;;;;;;12.60;70.86;100660.69;5064125;28;20060;-66
2023/04/24 09:36:40;;;;;;;15.95;9.43;;;;;;;12.99;69.91;100672.28;5064623;28;20048;-64
2023/04/24 09:39:13;;;;;;;16.10;9.82;;;;;;;13.28;69.02;100658.53;5063707;28;20518;-65
2023/04/24 09:41:51;;;;;;;17.02;9.02;;;;;;;13.30;67.26;100660.97;5066704;28;20060;-66
2023/04/24 09:44:23;;;;;;;18.35;10.35;;;;;;;13.06;68.08;100671.78;5074598;28;20044;-68
2023/04/24 09:46:54;;;;;;;17.60;9.23;;;;;;;12.99;68.61;100669.50;5066463;28;20048;-65
2023/04/24 09:49:24;;;;;;;20.52;9.75;;;;;;;13.15;68.40;100673.38;5066761;28;20060;-66
2023/04/24 09:51:52;;;;;;;14.25;9.18;;;;;;;13.17;66.95;100679.41;5061703;28;20228;-63
2023/04/24 09:54:21;;;;;;;17.67;9.57;;;;;;;12.85;67.16;100673.63;5071430;28;20063;-64
2023/04/24 09:56:50;;;;;;;14.57;9.40;;;;;;;12.63;68.70;100673.81;5061316;28;20684;-66
2023/04/24 09:59:19;;;;;;;16.98;10.10;;;;;;;12.61;68.82;100674.16;5067574;28;20057;-66
2023/04/24 10:01:48;;;;;;;15.30;8.98;;;;;;;12.80;68.47;100676.53;5063425;28;20041;-65
2023/04/24 10:04:24;;;;;;;16.98;9.48;;;;;;;12.97;67.56;100676.53;5062981;28;20053;-64
2023/04/24 10:06:53;;;;;;;21.50;9.50;;;;;;;13.11;66.91;100672.41;5057912;28;20057;-66
2023/04/24 10:09:26;;;;;;;15.70;10.63;;;;;;;13.19;66.55;100668.00;5061682;28;20159;-66
2023/04/24 10:11:54;;;;;;;17.90;10.90;;;;;;;13.42;65.57;100672.13;5058396;28;20444;-67
2023/04/24 10:14:23;;;;;;;15.82;9.70;;;;;;;13.56;64.13;100670.72;5057297;28;20711;-67
2023/04/24 10:16:53;;;;;;;17.83;9.70;;;;;;;13.77;63.81;100673.56;5068726;28;20052;-66
2023/04/24 10:19:22;;;;;;;14.85;8.85;;;;;;;13.80;64.44;100669.28;5065175;28;20052;-68
2023/04/24 10:21:50;;;;;;;18.58;9.95;;;;;;;13.66;62.38;100669.56;5029364;28;20063;-67
2023/04/24 10:24:20;;;;;;;33.90;17.60;;;;;;;13.72;62.89;100679.25;5063564;28;20064;-66
2023/04/24 10:26:48;;;;;;;86.78;32.42;;;;;;;13.53;63.02;100671.41;5067836;28;20056;-65
2023/04/24 10:29:18;;;;;;;66.43;31.87;;;;;;;13.78;62.76;100666.88;5049050;28;20044;-66
2023/04/24 10:31:46;;;;;;;52.42;27.33;;;;;;;13.40;63.07;100678.00;5065885;28;20040;-66
2023/04/24 10:34:16;;;;;;;92.72;40.90;;;;;;;13.32;64.26;100670.53;5065744;28;20087;-64
2023/04/24 10:36:49;;;;;;;87.43;42.93;;;;;;;13.61;63.35;100668.94;5068098;28;20504;-66
2023/04/24 10:39:17;;;;;;;41.92;23.42;;;;;;;13.87;62.61;100675.94;5065906;28;20048;-66
2023/04/24 10:41:46;;;;;;;28.25;18.45;;;;;;;13.89;62.32;100672.81;5068279;28;20044;-66
2023/04/24 10:44:15;;;;;;;21.77;12.85;;;;;;;14.01;61.97;100673.72;5067151;28;20057;-64
2023/04/24 10:46:45;;;;;;;20.77;10.98;;;;;;;14.30;61.55;100672.84;5072146;28;20063;-67
2023/04/24 10:49:12;;;;;;;22.15;12.30;;;;;;;14.49;61.39;100665.66;5061973;28;20496;-68
2023/04/24 10:51:47;;;;;;;27.83;13.82;;;;;;;14.70;60.29;100671.16;5065674;28;20037;-66
2023/04/24 10:54:29;;;;;;;28.70;15.38;;;;;;;14.92;58.66;100672.72;5068164;28;20500;-67
2023/04/24 10:57:22;;;;;;;21.02;12.57;;;;;;;15.06;58.63;100662.94;5070198;28;20060;-67
2023/04/24 10:59:50;;;;;;;16.63;8.13;;;;;;;14.71;57.32;100666.44;5069198;28;20064;-68
2023/04/24 11:02:18;;;;;;;18.55;8.05;;;;;;;14.44;59.53;100662.28;5068412;28;20761;-70
2023/04/24 11:04:46;;;;;;;17.48;8.73;;;;;;;14.50;59.81;100663.72;5062901;28;20495;-69
2023/04/24 11:07:13;;;;;;;15.85;8.13;;;;;;;14.27;58.32;100663.25;5067506;28;20522;-69
2023/04/24 11:09:42;;;;;;;18.05;8.20;;;;;;;13.89;59.83;100664.50;5066017;28;20049;-68
2023/04/24 11:12:13;;;;;;;16.67;8.00;;;;;;;14.07;60.11;100671.56;5069902;28;20040;-69
2023/04/24 11:15:10;;;;;;;18.60;7.90;;;;;;;14.11;59.82;100664.16;5049713;28;20404;-70
2023/04/24 11:17:39;;;;;;;14.63;8.00;;;;;;;14.28;59.50;100662.09;5069261;28;20385;-68
2023/04/24 11:20:09;;;;;;;17.80;7.93;;;;;;;14.22;59.91;100659.84;5070764;28;20060;-68
2023/04/24 11:22:54;;;;;;;12.75;7.50;;;;;;;14.65;59.06;100666.66;5067338;28;20510;-68
2023/04/24 11:25:22;;;;;;;12.60;6.78;;;;;;;15.32;57.11;100663.44;5062956;28;20052;-69
2023/04/24 11:27:50;;;;;;;13.38;7.88;;;;;;;15.40;55.88;100654.19;5068471;28;20052;-67
2023/04/24 11:30:19;;;;;;;20.67;13.20;;;;;;;15.51;56.12;100647.03;5070273;28;20044;-69